Bells, Texas
Current Conditions -  °F | °C
As of 8:15 PM on Saturday 25 Oct 2014 (Local Time) from KGYI Reporting Station
Clear Clear  
Wind Chill: 75°   Ceiling: Unl
Heat Index: 75°   Visibility: 10mi
Dew Point: 64°   Wind: 7mph
Humidity: 69%   Direction: 160°SSE
Pressure: 30.06"   Gusts: NA
Location:  33.61°N, 96.41°W
Report Text: KGYI 260115Z AUTO 16006KT 10SM CLR 24/18 A3006 RMK AO2 T02410180
Loading
Personal Weather Stations






























Interactive Weather Map
Tropical Storm Tracking
New forecast layout! Learn more

10-Day Weather Forecast

Advertisements
Track Severe Weather on mobile